Time;durP1;ratioP1;P1;durP2;ratioP2;P2;SDS_P1;SDS_P2;PMS_P1;PMS_P2;Temp;Humidity;BMP_temperature;BMP_pressure;BME280_temperature;BME280_humidity;BME280_pressure;Samples;Min_cycle;Max_cycle;Signal;HPM_P1;HPM_P2
2022/05/19 03:58:00;;;;;;;5.90;2.20;;;;;;;11.61;54.06;101804.56;5606460;31;81630;-58
2022/05/19 04:01:04;;;;;;;2.35;1.62;;;;;;;11.61;54.06;101804.56;5584119;31;33584;-58
2022/05/19 04:04:07;;;;;;;5.35;2.15;;;;;;;11.13;54.76;101813.37;5583954;31;33667;-58
2022/05/19 04:07:11;;;;;;;5.00;2.30;;;;;;;11.17;56.09;101812.63;5584072;32;33568;-58
2022/05/19 04:10:13;;;;;;;7.93;2.10;;;;;;;11.14;66.16;101815.00;5583838;32;34288;-58
2022/05/19 04:13:16;;;;;;;6.00;2.37;;;;;;;11.06;60.20;101813.56;5584123;32;33738;-58
2022/05/19 04:16:18;;;;;;;3.58;2.25;;;;;;;11.17;59.09;101823.37;5583685;32;33610;-58
2022/05/19 04:19:20;;;;;;;7.85;2.30;;;;;;;11.32;54.69;101820.06;5583986;32;33567;-58
2022/05/19 04:22:23;;;;;;;7.28;2.90;;;;;;;11.50;62.96;101824.31;5583842;31;33652;-58
2022/05/19 04:25:26;;;;;;;6.62;2.67;;;;;;;11.56;58.79;101820.63;5584026;31;34258;-58
2022/05/19 04:28:28;;;;;;;7.47;2.12;;;;;;;11.56;55.53;101820.63;5583714;31;33631;-59
2022/05/19 04:31:31;;;;;;;5.50;2.80;;;;;;;11.64;68.36;101833.59;5589723;31;33335;-58
2022/05/19 04:34:34;;;;;;;4.30;2.33;;;;;;;11.76;69.84;101839.66;5603196;31;34359;-58
2022/05/19 04:37:36;;;;;;;5.03;2.33;;;;;;;11.79;62.81;101834.81;5598127;31;33686;-59
2022/05/19 04:40:43;;;;;;;4.95;2.42;;;;;;;11.83;61.00;101841.34;5587171;31;33642;-58
2022/05/19 04:43:48;;;;;;;5.45;2.20;;;;;;;11.83;56.58;101844.03;5593471;31;34998;-59
2022/05/19 04:46:50;;;;;;;10.35;2.47;;;;;;;12.09;54.45;101837.88;5603454;31;33543;-58
2022/05/19 04:49:52;;;;;;;4.75;2.10;;;;;;;12.25;53.15;101836.13;5602661;31;33637;-58
2022/05/19 04:52:58;;;;;;;4.32;2.20;;;;;;;12.41;51.14;101837.06;5589713;31;33823;-58
2022/05/19 04:56:00;;;;;;;8.27;2.62;;;;;;;12.43;51.76;101837.63;5602936;31;34245;-59
2022/05/19 04:59:04;;;;;;;7.10;2.37;;;;;;;12.54;63.31;101839.31;5601508;31;33850;-59
2022/05/19 05:02:08;;;;;;;5.32;2.10;;;;;;;12.57;52.57;101833.41;5583431;31;34191;-58
2022/05/19 05:05:11;;;;;;;4.82;2.50;;;;;;;12.73;55.01;101833.53;5582554;31;33413;-59
2022/05/19 05:08:13;;;;;;;4.25;2.45;;;;;;;12.85;58.25;101834.16;5575386;31;34259;-59
2022/05/19 05:11:15;;;;;;;7.87;2.47;;;;;;;13.16;59.90;101838.62;5570483;32;33879;-59
2022/05/19 05:14:18;;;;;;;5.78;2.40;;;;;;;13.29;57.87;101839.28;5585720;31;34369;-58
2022/05/19 05:17:21;;;;;;;6.70;2.37;;;;;;;13.52;58.71;101838.03;5589813;31;33661;-58
2022/05/19 05:20:23;;;;;;;10.95;2.58;;;;;;;13.65;56.05;101840.22;5576299;31;33568;-58
2022/05/19 05:23:25;;;;;;;7.40;2.30;;;;;;;13.79;53.10;101840.53;5589287;31;33678;-58
2022/05/19 05:26:28;;;;;;;6.40;2.90;;;;;;;14.05;57.34;101830.59;5571410;31;34228;-59
2022/05/19 05:29:30;;;;;;;8.93;3.00;;;;;;;14.25;56.76;101840.59;5579731;31;33597;-58
2022/05/19 05:32:33;;;;;;;3.75;2.28;;;;;;;14.44;52.82;101848.97;5588174;31;33600;-58
2022/05/19 05:35:35;;;;;;;6.35;2.70;;;;;;;14.60;59.19;101844.38;5589132;31;34289;-58
2022/05/19 05:38:37;;;;;;;10.18;3.17;;;;;;;14.81;60.48;101854.09;5589401;31;33695;-59
2022/05/19 05:41:40;;;;;;;9.40;3.50;;;;;;;14.96;54.74;101854.03;5587857;31;33672;-58
2022/05/19 05:44:42;;;;;;;9.23;3.12;;;;;;;15.30;52.04;101850.72;5569860;31;33594;-59
2022/05/19 05:47:45;;;;;;;5.65;2.83;;;;;;;15.66;49.75;101855.97;5583312;31;33654;-58
2022/05/19 05:50:47;;;;;;;5.95;2.60;;;;;;;15.94;52.47;101852.59;5569678;31;33674;-58
2022/05/19 05:53:49;;;;;;;7.60;3.47;;;;;;;16.10;50.63;101861.41;5589318;31;33651;-59
2022/05/19 05:56:52;;;;;;;6.15;3.50;;;;;;;16.07;44.11;101859.28;5588910;31;33590;-59
2022/05/19 05:59:55;;;;;;;7.72;3.72;;;;;;;16.14;43.14;101848.94;5588025;31;34260;-59
2022/05/19 06:02:57;;;;;;;11.98;3.83;;;;;;;16.21;43.47;101862.16;5588861;31;33698;-59
2022/05/19 06:06:01;;;;;;;8.40;3.90;;;;;;;16.28;45.03;101853.72;5579183;31;33734;-59
2022/05/19 06:09:05;;;;;;;7.05;3.90;;;;;;;16.56;45.54;101850.25;5569816;31;33200;-58
2022/05/19 06:12:08;;;;;;;8.88;4.18;;;;;;;16.66;39.45;101852.03;5589182;31;34350;-59
2022/05/19 06:15:13;;;;;;;12.18;3.70;;;;;;;16.60;40.06;101845.06;5588363;31;33578;-58
2022/05/19 06:18:15;;;;;;;6.40;3.67;;;;;;;16.70;43.15;101847.66;5569185;31;34228;-59
2022/05/19 06:21:19;;;;;;;9.57;3.85;;;;;;;17.01;46.51;101848.19;5586667;31;35222;-59
2022/05/19 06:24:22;;;;;;;8.23;4.25;;;;;;;17.20;41.47;101845.53;5588721;31;33700;-59
2022/05/19 06:27:24;;;;;;;6.12;3.28;;;;;;;17.27;40.72;101843.28;5588058;31;33299;-59
2022/05/19 06:30:28;;;;;;;11.45;3.62;;;;;;;17.45;52.14;101851.75;5576089;31;34526;-59
2022/05/19 06:33:33;;;;;;;7.47;3.85;;;;;;;17.64;42.01;101852.56;5587187;31;34348;-59
2022/05/19 06:36:36;;;;;;;7.67;3.50;;;;;;;17.67;40.91;101851.19;5588488;31;34273;-59
2022/05/19 06:39:38;;;;;;;7.85;3.50;;;;;;;17.77;43.28;101851.88;5587615;31;34321;-59
2022/05/19 06:42:44;;;;;;;7.62;3.75;;;;;;;18.13;45.45;101845.94;5588250;31;33581;-59
2022/05/19 06:45:46;;;;;;;9.80;4.22;;;;;;;18.28;45.51;101850.34;5588579;31;33605;-58
2022/05/19 06:48:49;;;;;;;8.10;4.20;;;;;;;18.48;41.33;101849.19;5588917;31;34351;-59
2022/05/19 06:51:51;;;;;;;6.22;3.55;;;;;;;18.58;42.91;101848.22;5587350;31;33784;-59
2022/05/19 06:54:56;;;;;;;7.95;3.70;;;;;;;18.44;39.90;101848.97;5570862;31;33677;-59
2022/05/19 06:57:59;;;;;;;9.63;4.07;;;;;;;18.67;41.92;101846.41;5568921;32;34410;-59
2022/05/19 07:01:02;;;;;;;4.60;3.05;;;;;;;18.71;41.28;101852.88;5569206;32;33643;-59
2022/05/19 07:04:04;;;;;;;8.25;3.65;;;;;;;18.89;46.34;101854.72;5581096;31;34029;-59
2022/05/19 07:07:08;;;;;;;10.48;3.60;;;;;;;19.11;44.84;101848.59;5598476;31;33537;-59
2022/05/19 07:10:11;;;;;;;8.75;3.80;;;;;;;19.17;39.83;101841.13;5608454;31;34230;-59
2022/05/19 07:13:13;;;;;;;6.72;4.00;;;;;;;19.12;39.57;101846.69;5587222;31;34098;-58
2022/05/19 07:16:16;;;;;;;10.43;4.30;;;;;;;19.05;37.04;101843.56;5588622;31;34185;-59
2022/05/19 07:22:54;;;;;;;6.03;2.62;;;;;;;19.01;43.46;101851.50;5559545;31;33588;-59
2022/05/19 07:25:56;;;;;;;2.58;1.80;;;;;;;19.20;36.00;101845.97;5574439;31;33552;-59
2022/05/19 07:28:58;;;;;;;2.85;1.90;;;;;;;19.36;34.27;101847.25;5583728;31;34266;-58
2022/05/19 07:32:01;;;;;;;7.45;2.35;;;;;;;19.52;32.66;101845.03;5590534;31;33674;-59
2022/05/19 07:35:08;;;;;;;6.30;1.90;;;;;;;19.55;30.86;101849.88;5584183;31;33098;-59
2022/05/19 07:38:11;;;;;;;4.80;2.10;;;;;;;19.52;30.48;101834.16;5588085;31;34432;-59
2022/05/19 07:41:13;;;;;;;11.95;2.58;;;;;;;19.62;30.19;101835.84;5586173;31;33655;-58
2022/05/19 07:44:15;;;;;;;3.53;1.90;;;;;;;19.72;31.72;101830.22;5583316;31;33240;-58
2022/05/19 07:47:19;;;;;;;5.28;1.90;;;;;;;19.90;41.78;101829.25;5587677;31;33652;-59
2022/05/19 07:50:21;;;;;;;15.35;2.20;;;;;;;19.92;30.36;101827.00;5585246;31;33595;-58
2022/05/19 07:53:24;;;;;;;6.20;1.70;;;;;;;19.99;30.27;101831.22;5588105;31;33543;-59
2022/05/19 07:56:26;;;;;;;7.43;2.12;;;;;;;19.98;29.01;101826.91;5580900;31;34268;-59
2022/05/19 07:59:29;;;;;;;11.25;2.10;;;;;;;19.95;28.45;101820.16;5586698;31;34847;-59
2022/05/19 08:02:32;;;;;;;32.20;3.70;;;;;;;20.16;38.68;101826.72;5567856;32;33571;-59
2022/05/19 08:05:34;;;;;;;17.20;3.15;;;;;;;20.28;31.89;101828.88;5567055;32;33632;-58
2022/05/19 08:08:38;;;;;;;6.70;3.12;;;;;;;20.38;31.44;101827.81;5567848;32;33634;-59
2022/05/19 08:11:40;;;;;;;7.22;2.28;;;;;;;20.41;31.03;101824.47;5567775;32;33526;-59
2022/05/19 08:18:08;;;;;;;20.62;3.10;;;;;;;20.39;28.52;101826.69;5567603;32;33636;-59
2022/05/19 08:21:12;;;;;;;10.50;2.33;;;;;;;20.29;28.23;101821.50;5568013;32;33262;-59
2022/05/19 08:24:15;;;;;;;18.30;2.22;;;;;;;20.38;35.45;101827.81;5566556;32;33260;-58
2022/05/19 08:27:18;;;;;;;8.85;2.33;;;;;;;20.44;30.49;101828.50;5567006;32;33737;-59
2022/05/19 08:30:21;;;;;;;25.33;3.03;;;;;;;20.41;28.12;101816.31;5564838;32;33630;-58
2022/05/19 08:33:23;;;;;;;10.07;2.15;;;;;;;20.46;28.57;101824.31;5570306;31;33717;-59
2022/05/19 08:36:26;;;;;;;9.25;2.55;;;;;;;20.58;28.53;101821.88;5573509;31;33724;-58
2022/05/19 08:39:28;;;;;;;11.82;2.70;;;;;;;20.60;28.71;101811.47;5582659;31;34228;-58
2022/05/19 08:42:35;;;;;;;17.52;2.85;;;;;;;20.73;31.20;101812.50;5572307;31;33587;-59
2022/05/19 08:45:47;;;;;;;16.65;3.97;;;;;;;20.75;30.26;101812.97;5574478;31;34433;-59
2022/05/19 08:48:54;;;;;;;10.75;3.53;;;;;;;20.80;31.04;101810.13;5574424;31;33623;-58
2022/05/19 08:52:26;;;;;;;18.73;3.20;;;;;;;20.86;29.40;101817.03;5570234;32;33715;-59
2022/05/19 08:55:29;;;;;;;5.65;2.35;;;;;;;20.85;29.02;101823.59;5577982;31;34377;-59
2022/05/19 08:58:47;;;;;;;4.30;2.10;;;;;;;20.76;26.82;101809.16;5576332;31;34182;-59
2022/05/19 09:02:09;;;;;;;5.37;1.92;;;;;;;20.62;27.35;101808.44;5576243;31;33735;-59
2022/05/19 09:05:14;;;;;;;5.80;1.70;;;;;;;20.76;28.91;101809.16;5576882;31;34266;-58
2022/05/19 09:08:50;;;;;;;12.03;2.20;;;;;;;20.81;27.22;101805.47;5577094;31;34462;-58
2022/05/19 09:12:00;;;;;;;8.45;2.33;;;;;;;20.93;27.70;101805.69;5579376;31;33883;-58
2022/05/19 09:15:06;;;;;;;6.82;1.80;;;;;;;20.92;26.31;101806.78;5577074;31;33535;-59
2022/05/19 09:18:09;;;;;;;23.05;3.15;;;;;;;20.98;26.98;101802.78;5589206;31;33762;-58
2022/05/19 09:21:12;;;;;;;29.87;4.20;;;;;;;21.10;28.74;101805.72;5577958;31;33444;-58
2022/05/19 09:24:14;;;;;;;5.85;2.67;;;;;;;21.10;27.07;101803.00;5573974;31;34325;-58
2022/05/19 09:27:22;;;;;;;4.72;1.52;;;;;;;21.21;29.11;101795.31;5573913;31;33692;-58
2022/05/19 09:30:35;;;;;;;5.45;2.25;;;;;;;21.25;31.86;101795.50;5578502;31;34259;-58
2022/05/19 09:33:44;;;;;;;25.12;2.37;;;;;;;21.27;30.74;101799.50;5581824;31;33771;-59
2022/05/19 09:37:01;;;;;;;5.05;1.92;;;;;;;21.32;28.00;101787.62;5583991;31;33929;-58
2022/05/19 09:40:11;;;;;;;16.65;2.17;;;;;;;21.39;28.04;101793.47;5568871;31;33625;-59
2022/05/19 09:43:36;;;;;;;11.32;2.08;;;;;;;21.38;27.92;101791.06;5575893;31;33812;-59
2022/05/19 09:46:42;;;;;;;10.95;2.20;;;;;;;21.43;27.74;101780.78;5578432;31;33846;-59
2022/05/19 09:49:52;;;;;;;7.10;1.87;;;;;;;21.44;27.61;101782.41;5576882;31;34051;-58
2022/05/19 09:53:06;;;;;;;4.70;1.90;;;;;;;21.48;26.41;101777.91;5578500;31;34448;-59
2022/05/19 09:56:12;;;;;;;6.87;2.05;;;;;;;21.50;25.64;101783.84;5576343;31;34266;-58
2022/05/19 09:59:24;;;;;;;5.22;1.77;;;;;;;21.51;25.97;101769.06;5583888;31;33673;-59
2022/05/19 10:02:30;;;;;;;4.37;2.12;;;;;;;21.62;27.98;101774.22;5587489;31;34314;-59
2022/05/19 10:06:02;;;;;;;6.85;1.83;;;;;;;21.73;27.27;101767.31;5574054;31;33840;-58
2022/05/19 10:09:08;;;;;;;3.72;1.77;;;;;;;21.77;27.84;101762.81;5569695;31;33816;-58
2022/05/19 10:12:13;;;;;;;3.90;1.45;;;;;;;21.66;26.25;101762.34;5570697;31;33622;-59
2022/05/19 10:15:18;;;;;;;4.95;1.58;;;;;;;21.70;27.74;101749.66;5570375;31;34567;-59
2022/05/19 10:18:54;;;;;;;3.67;1.50;;;;;;;21.79;27.80;101749.66;5588151;31;33917;-59
2022/05/19 10:22:34;;;;;;;3.20;1.40;;;;;;;21.90;27.40;101755.56;5575101;31;33809;-59
2022/05/19 10:25:46;;;;;;;6.65;1.45;;;;;;;21.90;25.34;101753.66;5552199;31;33618;-58
2022/05/19 10:32:51;;;;;;;3.87;1.60;;;;;;;21.76;25.06;101744.84;5571172;31;34453;-58
2022/05/19 10:36:26;;;;;;;5.47;1.20;;;;;;;21.81;25.73;101740.00;5566918;32;34354;-59
2022/05/19 10:39:56;;;;;;;2.90;1.20;;;;;;;21.88;25.38;101742.25;5579928;31;33648;-59
2022/05/19 10:43:11;;;;;;;3.65;1.27;;;;;;;22.02;27.02;101734.69;5570302;31;33594;-59
2022/05/19 10:46:15;;;;;;;2.78;1.30;;;;;;;22.11;27.13;101726.44;5577635;31;33576;-59
2022/05/19 10:49:49;;;;;;;2.65;1.48;;;;;;;22.13;28.29;101715.22;5579239;31;33588;-59
2022/05/19 10:53:19;;;;;;;2.43;1.30;;;;;;;22.20;28.12;101713.59;5575032;31;34479;-59
2022/05/19 10:56:43;;;;;;;4.22;1.30;;;;;;;22.15;23.52;101707.47;5573609;31;34315;-59
2022/05/19 10:59:46;;;;;;;1.92;1.20;;;;;;;22.17;25.47;101706.06;5574203;31;33950;-59
2022/05/19 11:03:27;;;;;;;2.75;1.20;;;;;;;22.20;24.84;101699.16;5580532;31;31965;-59
2022/05/19 11:07:07;;;;;;;6.62;1.48;;;;;;;22.23;24.52;101695.78;5568931;31;34376;-59
2022/05/19 11:10:36;;;;;;;3.33;1.37;;;;;;;22.25;24.09;101690.75;5582403;31;34269;-59
2022/05/19 11:13:42;;;;;;;2.85;1.30;;;;;;;22.32;24.54;101682.06;5580572;31;34508;-59
2022/05/19 11:16:52;;;;;;;1.90;1.27;;;;;;;22.39;21.93;101685.91;5577702;31;34424;-59
2022/05/19 11:20:22;;;;;;;5.65;1.30;;;;;;;22.32;23.40;101679.31;5587009;31;33863;-59
2022/05/19 11:23:41;;;;;;;1.98;1.27;;;;;;;22.38;24.56;101683.47;5572245;31;33725;-59
2022/05/19 11:26:52;;;;;;;4.37;1.50;;;;;;;22.42;23.94;101681.72;5586417;31;34358;-59
2022/05/19 11:30:00;;;;;;;5.30;1.50;;;;;;;22.39;24.67;101666.78;5587014;31;33657;-58
2022/05/19 11:33:11;;;;;;;3.15;1.30;;;;;;;22.45;25.94;101661.91;5568317;31;33748;-58
2022/05/19 11:36:34;;;;;;;6.68;1.30;;;;;;;22.60;28.54;101660.56;5569307;31;33719;-59
2022/05/19 11:39:47;;;;;;;3.80;1.25;;;;;;;22.58;26.36;101652.66;5590237;31;33630;-58
2022/05/19 11:43:09;;;;;;;2.40;0.90;;;;;;;22.62;24.80;101641.91;5591291;31;34465;-58
2022/05/19 11:46:18;;;;;;;3.33;1.10;;;;;;;22.61;27.29;101645.75;5580540;31;33832;-59
2022/05/19 11:56:37;;;;;;;4.22;1.30;;;;;;;22.67;24.65;101630.75;5578927;31;34288;-58
2022/05/19 11:59:43;;;;;;;4.20;1.02;;;;;;;22.65;25.22;101627.53;5570820;31;33481;-59
2022/05/19 12:02:49;;;;;;;;;;;;;;;22.71;25.20;101616.13;5568081;31;33696;-58
2022/05/19 12:05:57;;;;;;;6.47;1.35;;;;;;;22.83;22.35;101618.09;5577936;31;34599;-58
2022/05/19 12:09:23;;;;;;;5.37;1.50;;;;;;;22.72;22.67;101611.44;5570333;31;34371;-58
2022/05/19 12:12:36;;;;;;;3.95;1.30;;;;;;;22.75;22.44;101614.31;5579163;31;34408;-59
2022/05/19 12:15:50;;;;;;;4.28;1.20;;;;;;;22.80;22.67;101607.84;5580246;31;33703;-59
2022/05/19 12:19:04;;;;;;;7.95;1.62;;;;;;;22.82;23.17;101605.56;5589267;31;33618;-59
2022/05/19 12:22:23;;;;;;;3.58;1.30;;;;;;;22.89;22.99;101594.91;5570885;31;34337;-58
2022/05/19 12:25:31;;;;;;;3.40;1.40;;;;;;;22.93;23.84;101595.06;5598565;31;32341;-58
2022/05/19 12:28:52;;;;;;;4.03;1.48;;;;;;;22.94;22.94;101594.72;5579275;31;33880;-59
2022/05/19 12:32:06;;;;;;;2.42;1.50;;;;;;;23.06;24.10;101590.44;5581889;31;33799;-59
2022/05/19 12:35:15;;;;;;;1.52;1.00;;;;;;;23.14;23.94;101584.09;5588291;31;34456;-58
2022/05/19 12:38:34;;;;;;;3.65;1.10;;;;;;;23.16;25.41;101585.34;5587145;31;34429;-58
2022/05/19 12:41:42;;;;;;;;;;;;;;;;;;5576023;31;33162;-59
2022/05/19 12:44:50;;;;;;;2.53;1.27;;;;;;;23.07;25.66;101586.56;5570793;31;34984;-59
2022/05/19 12:47:57;;;;;;;2.37;1.17;;;;;;;23.06;23.70;101582.25;5578014;31;34416;-58
2022/05/19 12:51:15;;;;;;;2.00;1.30;;;;;;;23.11;27.16;101582.03;5571308;31;34368;-59
2022/05/19 12:54:19;;;;;;;3.58;1.60;;;;;;;23.08;23.62;101580.78;5583052;31;34208;-59
2022/05/19 12:57:30;;;;;;;1.83;1.15;;;;;;;23.04;25.01;101576.31;5575580;31;33111;-59
2022/05/19 13:00:35;;;;;;;4.25;1.37;;;;;;;23.05;25.06;101575.97;5578357;31;33718;-59
2022/05/19 13:03:42;;;;;;;6.12;1.48;;;;;;;23.11;24.52;101571.91;5582948;31;33022;-59
2022/05/19 13:06:55;;;;;;;2.72;1.40;;;;;;;23.12;25.13;101573.50;5587253;31;34508;-59
2022/05/19 13:10:29;;;;;;;4.85;1.42;;;;;;;23.20;24.30;101563.59;5587479;31;33763;-60
2022/05/19 13:13:51;;;;;;;5.18;1.45;;;;;;;23.17;23.23;101567.00;5572794;31;33472;-58
2022/05/19 13:16:54;;;;;;;5.32;1.60;;;;;;;23.29;22.47;101556.09;5576752;31;33555;-59
2022/05/19 13:19:56;;;;;;;10.82;1.60;;;;;;;23.32;23.74;101549.16;5585437;31;34252;-58
2022/05/19 13:23:03;;;;;;;4.03;1.27;;;;;;;23.31;23.55;101542.91;5569344;32;33857;-59
2022/05/19 13:26:13;;;;;;;3.08;1.37;;;;;;;23.45;24.34;101543.38;5567617;32;34299;-59
2022/05/19 13:32:40;;;;;;;4.87;1.50;;;;;;;23.49;26.08;101545.44;5585307;31;33666;-59
2022/05/19 13:35:45;;;;;;;6.53;2.10;;;;;;;23.47;26.36;101537.56;5569287;32;33667;-59
2022/05/19 13:39:03;;;;;;;3.70;1.30;;;;;;;23.38;29.53;101545.87;5568713;32;33774;-58
2022/05/19 13:42:12;;;;;;;16.08;2.15;;;;;;;23.45;24.80;101537.12;5577545;31;33584;-59
2022/05/19 13:45:23;;;;;;;7.50;1.67;;;;;;;23.36;23.53;101529.00;5578595;31;34228;-59
2022/05/19 13:48:45;;;;;;;6.72;1.80;;;;;;;23.35;24.61;101535.59;5577070;31;34606;-60
2022/05/19 13:51:49;;;;;;;39.70;3.20;;;;;;;23.42;24.27;101533.09;5573988;31;33714;-59
2022/05/19 13:54:51;;;;;;;15.73;2.10;;;;;;;23.45;25.27;101529.69;5575073;31;33622;-59
2022/05/19 13:57:54;;;;;;;7.32;1.70;;;;;;;23.51;26.15;101521.25;5585150;31;34339;-58
2022/05/19 14:00:57;;;;;;;5.12;1.60;;;;;;;23.51;23.50;101521.25;5578469;31;33791;-59
2022/05/19 14:04:02;;;;;;;2.92;1.80;;;;;;;23.56;25.41;101519.09;5569837;32;33654;-59
2022/05/19 14:07:06;;;;;;;4.25;1.50;;;;;;;23.62;24.08;101514.22;5576405;31;34099;-59
2022/05/19 14:10:18;;;;;;;24.50;3.25;;;;;;;23.70;24.38;101513.31;5572290;31;34387;-59
2022/05/19 14:13:23;;;;;;;5.55;2.00;;;;;;;23.64;31.74;101515.47;5578515;31;34258;-58
2022/05/19 14:16:30;;;;;;;7.55;1.60;;;;;;;23.57;23.78;101506.22;5574083;31;34380;-59
2022/05/19 14:19:39;;;;;;;4.53;1.60;;;;;;;23.70;24.60;101512.53;5582803;31;33742;-59
2022/05/19 14:22:42;;;;;;;11.73;2.17;;;;;;;23.67;24.18;101511.22;5570824;31;33627;-59
2022/05/19 14:25:50;;;;;;;6.90;1.70;;;;;;;23.67;27.30;101508.50;5579687;31;33814;-59
2022/05/19 14:28:54;;;;;;;4.10;1.80;;;;;;;23.61;24.57;101498.94;5576994;31;34337;-59
2022/05/19 14:32:33;;;;;;;9.55;2.10;;;;;;;23.60;24.88;101494.56;5570263;31;33816;-60
2022/05/19 14:35:54;;;;;;;6.85;1.77;;;;;;;23.75;25.97;101482.19;5579748;31;33732;-59
2022/05/19 14:39:19;;;;;;;8.63;1.50;;;;;;;23.72;26.97;101480.13;5585507;31;33708;-59
2022/05/19 14:45:50;;;;;;;6.15;1.90;;;;;;;23.65;24.76;101480.69;5574991;31;34293;-59
2022/05/19 14:49:02;;;;;;;4.18;1.58;;;;;;;23.64;27.72;101474.41;5572650;31;34328;-58
2022/05/19 14:52:06;;;;;;;10.05;1.75;;;;;;;23.66;25.72;101469.38;5572963;31;33735;-59
2022/05/19 14:55:16;;;;;;;4.97;1.75;;;;;;;23.65;23.95;101467.00;5574477;31;33414;-59
2022/05/19 14:58:30;;;;;;;4.50;1.50;;;;;;;23.74;23.82;101458.69;5569195;32;34447;-58
2022/05/19 15:01:32;;;;;;;6.35;1.70;;;;;;;23.77;25.49;101460.72;5571578;31;33401;-59
2022/05/19 15:04:34;;;;;;;3.87;1.50;;;;;;;23.73;24.91;101465.31;5584943;31;34216;-59
2022/05/19 15:07:44;;;;;;;3.90;1.85;;;;;;;23.68;25.19;101458.91;5571896;31;33830;-59
2022/05/19 15:10:46;;;;;;;4.28;1.67;;;;;;;23.67;26.55;101460.03;5580570;31;33784;-59
2022/05/19 15:13:49;;;;;;;2.22;1.60;;;;;;;23.58;24.42;101459.34;5587360;31;32290;-59
2022/05/19 15:16:52;;;;;;;4.65;1.65;;;;;;;23.60;24.89;101453.53;5578539;31;34777;-58
